x

Orange Beach - 44 Nm Se Of Mobile, Al (42012) Wave Buoy

6:50am - Wed 28th Sep 2016 All times are CDT. -5 hours from GMT.

  • Sig Wave height 0.7ft
  • Average Period 3s
  • Wind
    9mph, 11mph gusts
  • Sea Temp 86°f
  • Air Temp 81°f
  • Sea Pressure 1013.5mb
  • Orange Beach - 44 Nm Se Of Mobile, Al
  • Orange Beach - 44 Nm Se Of Mobile, Al

More Historic Weather Station data

Upgrade to MSW Pro to gain access to the past 30 days of data for over 8000 Wavebouys and Weather Stations around the globe.

Join Pro

Comparision Forecast

View Surf forecast
   
Wed 09/28 6:50am 0.7ft  -  3s 9 11 mph 1013.5mb 86f 81f
5:50am 0.7ft  -  4s 9 11 mph 1013.4mb 86f 82f
4:50am 1ft 5s 4s 9 11 mph 1013mb 86f 82f
3:50am 1ft 5s 4s 7 9 mph 1012.7mb 86f 83f
2:50am 1ft 5s 4s 9 11 mph 1012.6mb 86f 83f
1:50am 1ft 6s 3s 7 9 mph 1012.9mb 86f 83f
12:50am 1ft 5s 4s 7 9 mph 1013.3mb 86f 84f
Tue 09/27 11:50pm 1ft 6s 4s 4 7 mph 1013.5mb 86f 84f
10:50pm 1ft 6s 4s 7 9 mph 1013.8mb 86f 84f
9:50pm 1ft 6s 4s 7 9 mph 1013.6mb 86f 84f
8:50pm 1ft 6s 4s 7 9 mph 1013.5mb 86f 84f
7:50pm 0.7ft  -  4s 7 9 mph 1013mb 87f 84f
6:50pm 0.7ft  -  4s 7 9 mph 1012.4mb 87f 83f
5:50pm 0.7ft  -  4s 7 9 mph 1012.2mb 87f 84f
4:50pm 0.7ft  -  3s 7 9 mph 1012.2mb 87f 84f
3:50pm 0.7ft  -  3s 7 9 mph 1012.5mb 87f 83f
2:50pm 0.7ft  -  3s 9 11 mph 1012.7mb 87f 83f
1:50pm 0.7ft  -  3s 7 9 mph 1013.3mb 87f 83f
12:50pm 0.7ft  -  3s 7
mph
1013.9mb 86f 83f
11:50am 0.7ft  -  3s 7 9 mph 1014.3mb 86f 83f
10:50am 0.7ft  -  3s 4 7 mph 1014.6mb 86f 83f
9:50am 0.7ft  -  3s 4 7 mph 1014.4mb 85f 83f
8:50am 0.7ft  -  3s 2 4 mph 1014mb 85f 83f
7:50am 0.7ft  -  3s 2 4 mph 1013.5mb 85f 82f
6:50am 0.7ft  -  3s 4 7 mph 1013.2mb 85f 81f
5:50am 0.3ft  -  3s 2 4 mph 1013.4mb 85f 82f
4:50am 0.7ft  -  3s 2
mph
1013.2mb 85f 82f
3:50am 0.3ft  -  4s 2 4 mph 1013.2mb 86f 81f
2:50am 0.3ft  -  4s 2
mph
1013.7mb 85f 82f
1:50am 0.7ft  -  4s 4
mph
1014.1mb 86f 82f
12:50am 0.7ft  -  4s 4 7 mph 1014.5mb 86f 82f
Mon 09/26 11:50pm 0.7ft  -  4s 4 7 mph 1014.8mb 86f 82f
10:50pm 0.7ft  -  4s 2 4 mph 1015.1mb 86f 83f
9:50pm 0.7ft  -  3s  -  mph 1015.2mb 86f 82f
8:50pm 0.7ft  -  3s 4 7 mph 1015mb 86f 82f
7:50pm 0.7ft  -  3s  -  2 mph 1014.3mb 86f 82f
6:50pm 1ft 3s 3s 2
mph
1014.2mb 86f 82f
5:50pm 1.3ft 3s 3s 2
mph
1013.7mb 87f 82f
4:50pm 0.7ft  -  3s 7 9 mph 1013.6mb 87f 81f
3:50pm 0.7ft  -  3s 11 16 mph 1014.3mb 87f 81f
2:50pm 0.7ft  -  3s  -  2 mph 1014.6mb 87f 83f
1:50pm 0.7ft  -  3s 2 4 mph 1015.2mb 88f 83f
12:50pm 1ft 3s 3s 2 4 mph 1015.7mb 87f 84f
11:50am 1ft 4s 3s 4 7 mph 1016.5mb 86f 83f
10:50am 0.7ft  -  4s 7 9 mph 1016.1mb 86f 82f
9:50am 0.7ft  -  3s 4 7 mph 1016.5mb 86f 82f
8:50am 0.7ft  -  3s 9 11 mph 1016.3mb 86f 82f
7:50am 0.7ft  -  3s 13 16 mph 1016.3mb 86f 80f
6:50am 1ft 3s 3s 13 20 mph 1015.7mb 86f 81f
5:50am 0.7ft  -  3s 11
mph
1015mb 86f 82f
4:50am 0.3ft  -  3s 7 9 mph 1014.9mb 86f 82f
3:50am 0.3ft  -  4s 7
mph
1014.7mb 86f 84f
2:50am 0.3ft  -  4s 2 4 mph 1015.1mb 86f 83f
1:50am 0.3ft  -  4s  -  mph 1015.3mb 86f 83f
12:50am 0.3ft  -  4s 2 4 mph 1015.7mb 86f 83f
Sun 09/25 11:50pm 0.3ft  -  4s 2 4 mph 1016.1mb 86f 83f
10:50pm 0.7ft  -  4s 4 7 mph 1016.1mb 86f 83f
9:50pm 0.7ft  -  3s 4 7 mph 1016.1mb 86f 84f
8:50pm 0.7ft  -  3s 2 4 mph 1016.3mb 87f 84f
7:50pm 0.7ft  -  3s 2
mph
1015.5mb 87f 84f
6:50pm 0.7ft  -  3s 2
mph
1014.6mb 87f 84f
5:50pm 0.7ft  -  3s 4 9 mph 1014.6mb 87f 85f
4:50pm 0.7ft  -  3s 2 4 mph 1014.4mb 87f 85f
3:50pm 0.7ft  -  3s 4 7 mph 1014.6mb 87f 86f
2:50pm 1ft 3s 3s 9
mph
1014.8mb 87f 85f
1:50pm 1ft 3s 3s 7 9 mph 1016.1mb 87f 84f
12:50pm 1ft 3s 3s 9 11 mph 1016.8mb 87f 83f
11:50am 1ft 3s 3s 9 11 mph 1017.1mb 86f 84f
10:50am 0.7ft  -  3s 11
mph
1017mb 86f 84f
9:50am 0.7ft  -  3s 11 13 mph 1017.2mb 86f 83f
8:50am 0.7ft  -  3s 9 11 mph 1017.3mb 85f 82f
7:50am 0.7ft  -  3s 11
mph
1017.2mb 85f 83f
6:50am 0.7ft  -  4s 9 11 mph 1016.8mb 85f 83f
5:50am 0.7ft  -  4s 2 4 mph 1016.3mb 85f 81f
4:50am 0.7ft  -  3s 11 18 mph 1016.6mb 85f 81f
3:50am 0.7ft  -  3s 9
mph
1015.6mb 85f 85f
2:50am 0.7ft  -  3s 7 9 mph 1015.7mb 86f 85f
1:50am 0.7ft  -  3s 9 11 mph 1015.6mb 86f 85f
12:50am 0.7ft  -  4s 11 13 mph 1015.3mb 86f 85f
Sat 09/24 11:50pm 0.7ft  -  3s 13 18 mph 1015.7mb 86f 85f
10:50pm 1ft 4s 4s 7 9 mph 1016mb 86f 85f
9:50pm 1ft 4s 4s 7 9 mph 1016.2mb 86f 85f
8:50pm 0.7ft  -  3s 7 9 mph 1015.7mb 86f 85f
7:50pm 0.7ft  -  3s 4 7 mph 1015.7mb 86f 85f
6:50pm 0.7ft  -  4s 4
mph
1015.5mb 86f 85f
5:50pm 0.7ft  -  3s 7 9 mph 1015.4mb 87f 86f
4:50pm 0.7ft  -  4s 9
mph
1015.4mb 87f 86f
3:50pm 1ft 4s 4s 7 9 mph 1015.4mb 87f 86f
2:50pm 0.7ft  -  4s 4 7 mph 1016.2mb 87f 86f
1:50pm 0.7ft  -  4s  -  2 mph 1017mb 87f 86f
12:50pm 0.7ft  -  3s 2
mph
1017.7mb 87f 84f